createdAt,value
2023-06-06T00:02:24.573Z,17.49
2023-06-06T00:07:25.923Z,17.41
2023-06-06T00:12:27.165Z,17.28
2023-06-06T00:17:28.245Z,17.15
2023-06-06T00:22:29.393Z,17.05
2023-06-06T00:27:31.424Z,16.89
2023-06-06T00:32:32.573Z,16.74
2023-06-06T00:37:33.810Z,16.56
2023-06-06T00:42:34.973Z,16.44
2023-06-06T00:47:36.299Z,16.32
2023-06-06T00:52:37.445Z,16.30
2023-06-06T00:57:38.403Z,16.22
2023-06-06T01:02:39.533Z,16.15
2023-06-06T01:07:40.676Z,16.07
2023-06-06T01:13:06.260Z,16.02
2023-06-06T01:18:07.406Z,16.01
2023-06-06T01:23:09.812Z,15.98
2023-06-06T01:28:10.826Z,15.96
2023-06-06T01:33:37.265Z,15.97
2023-06-06T01:38:44.984Z,15.97
2023-06-06T01:43:46.552Z,15.92
2023-06-06T01:48:47.601Z,15.84
2023-06-06T01:53:48.877Z,15.75
2023-06-06T01:58:49.955Z,15.63
2023-06-06T02:03:51.255Z,15.57
2023-06-06T02:08:52.321Z,15.45
2023-06-06T02:13:53.413Z,15.33
2023-06-06T02:18:56.465Z,15.24
2023-06-06T02:23:57.641Z,15.13
2023-06-06T02:28:58.849Z,15.03
2023-06-06T02:33:59.797Z,15.01
2023-06-06T02:39:01.063Z,14.97
2023-06-06T02:44:02.152Z,14.93
2023-06-06T02:49:03.179Z,14.87
2023-06-06T02:54:04.334Z,14.78
2023-06-06T02:59:05.619Z,14.75
2023-06-06T03:04:06.846Z,14.71
2023-06-06T03:09:08.501Z,14.67
2023-06-06T03:14:10.440Z,14.69
2023-06-06T03:19:11.603Z,14.71
2023-06-06T03:24:12.752Z,14.70
2023-06-06T03:29:13.798Z,14.68
2023-06-06T03:34:15.533Z,14.68
2023-06-06T03:39:18.001Z,14.68
2023-06-06T03:44:19.241Z,14.72
2023-06-06T03:49:20.611Z,14.81
2023-06-06T03:54:27.202Z,14.88
2023-06-06T03:59:28.456Z,15.00
2023-06-06T04:04:29.756Z,15.13
2023-06-06T04:09:36.521Z,15.29
2023-06-06T04:14:37.777Z,15.42
2023-06-06T04:19:38.939Z,15.56
2023-06-06T04:24:40.314Z,15.75
2023-06-06T04:29:41.776Z,15.95
2023-06-06T04:34:42.734Z,16.15
2023-06-06T04:39:44.198Z,16.31
2023-06-06T04:44:45.261Z,16.48
2023-06-06T04:49:46.727Z,16.67
2023-06-06T04:54:47.681Z,16.83
2023-06-06T04:59:48.712Z,16.99
2023-06-06T05:04:54.007Z,17.18
2023-06-06T05:09:55.375Z,17.40
2023-06-06T05:14:56.638Z,17.64
2023-06-06T05:19:57.899Z,17.84
2023-06-06T05:24:58.898Z,18.14
2023-06-06T05:29:59.915Z,18.48
2023-06-06T05:35:01.078Z,18.75
2023-06-06T05:40:02.237Z,18.93
2023-06-06T05:45:03.901Z,19.10
2023-06-06T05:50:05.990Z,19.34
2023-06-06T05:55:07.618Z,19.53
2023-06-06T06:00:09.793Z,19.61
2023-06-06T06:05:10.926Z,19.72
2023-06-06T06:10:11.937Z,19.80
2023-06-06T06:15:13.241Z,20.01
2023-06-06T06:20:16.213Z,20.21
2023-06-06T06:25:17.305Z,20.37
2023-06-06T06:30:18.407Z,20.52
2023-06-06T06:35:19.547Z,20.60
2023-06-06T06:40:21.448Z,20.68
2023-06-06T06:45:22.560Z,20.85
2023-06-06T06:50:23.727Z,21.00
2023-06-06T06:55:24.894Z,21.19
2023-06-06T07:00:27.392Z,21.41
2023-06-06T07:05:29.085Z,21.54
2023-06-06T07:10:31.841Z,21.69
2023-06-06T07:15:36.672Z,21.83
2023-06-06T07:20:37.874Z,22.02
2023-06-06T07:25:39.944Z,22.11
2023-06-06T07:30:41.205Z,22.31
2023-06-06T07:35:42.467Z,22.55
2023-06-06T07:40:43.568Z,22.68
2023-06-06T07:45:46.629Z,22.85
2023-06-06T07:50:47.690Z,23.08
2023-06-06T07:55:48.781Z,23.25
2023-06-06T08:00:49.803Z,23.47
2023-06-06T08:05:52.250Z,23.71
2023-06-06T08:10:53.908Z,23.97
2023-06-06T08:15:55.033Z,24.07
2023-06-06T08:20:56.193Z,24.18
2023-06-06T08:25:57.377Z,24.41
2023-06-06T08:30:58.629Z,24.50
2023-06-06T08:36:01.693Z,24.59
2023-06-06T08:41:04.730Z,24.73
2023-06-06T08:46:06.023Z,24.90
2023-06-06T08:51:07.145Z,25.15
2023-06-06T08:56:08.543Z,25.31
2023-06-06T09:01:11.079Z,25.61
2023-06-06T09:06:12.779Z,25.86
2023-06-06T09:11:16.340Z,26.00
2023-06-06T09:16:18.588Z,26.20
2023-06-06T09:21:21.810Z,26.38
2023-06-06T09:26:23.073Z,26.53
2023-06-06T09:31:30.088Z,26.69
2023-06-06T09:36:31.736Z,26.92
2023-06-06T09:41:39.046Z,27.05
2023-06-06T09:46:40.491Z,27.27
2023-06-06T09:51:44.139Z,27.43
2023-06-06T09:56:47.053Z,27.80
2023-06-06T10:01:48.167Z,28.02
2023-06-06T10:06:49.354Z,28.24
2023-06-06T10:11:50.626Z,28.46
2023-06-06T10:16:52.012Z,28.64
2023-06-06T10:21:53.410Z,28.86
2023-06-06T10:27:17.455Z,29.11
2023-06-06T10:32:25.246Z,29.30
2023-06-06T10:37:26.235Z,29.56
2023-06-06T10:42:38.461Z,29.80
2023-06-06T10:47:41.472Z,29.98
2023-06-06T10:52:46.095Z,30.09
2023-06-06T10:57:53.824Z,30.24
2023-06-06T11:02:55.120Z,30.48
2023-06-06T11:07:59.628Z,30.87
2023-06-06T11:13:00.613Z,31.07
2023-06-06T11:18:04.253Z,31.06
2023-06-06T11:23:05.608Z,31.01
2023-06-06T11:28:07.338Z,31.14
2023-06-06T11:33:08.935Z,31.38
2023-06-06T11:38:10.282Z,31.66
2023-06-06T11:43:11.487Z,31.88
2023-06-06T11:48:23.773Z,32.04
2023-06-06T11:53:31.679Z,32.23
2023-06-06T11:58:32.961Z,32.48
2023-06-06T12:03:34.313Z,32.70
2023-06-06T12:08:36.697Z,33.01
2023-06-06T12:13:37.697Z,33.02
2023-06-06T12:18:46.232Z,32.94
2023-06-06T12:23:50.855Z,33.08
2023-06-06T12:29:06.228Z,32.62
2023-06-06T12:34:08.209Z,32.48
2023-06-06T12:39:12.655Z,32.17
2023-06-06T12:44:13.988Z,32.52
2023-06-06T12:49:15.318Z,33.20
2023-06-06T12:54:16.478Z,33.20
2023-06-06T12:59:17.504Z,33.85
2023-06-06T13:04:19.004Z,34.36
2023-06-06T13:09:20.349Z,33.84
2023-06-06T13:14:21.652Z,33.79
2023-06-06T13:19:22.868Z,33.15
2023-06-06T13:24:24.268Z,32.61
2023-06-06T13:29:25.519Z,32.23
2023-06-06T13:34:26.972Z,31.46
2023-06-06T13:39:29.899Z,31.12
2023-06-06T13:44:31.029Z,31.03
2023-06-06T13:49:32.320Z,30.67
2023-06-06T13:54:33.449Z,30.65
2023-06-06T13:59:43.014Z,30.25
2023-06-06T14:04:44.307Z,29.72
2023-06-06T14:09:45.543Z,29.29
2023-06-06T14:14:46.800Z,28.85
2023-06-06T14:19:47.971Z,28.56
2023-06-06T14:24:49.304Z,28.33
2023-06-06T14:29:50.486Z,28.16
2023-06-06T14:34:51.560Z,28.05
2023-06-06T14:39:52.601Z,27.92
2023-06-06T14:44:54.602Z,27.78
2023-06-06T14:49:55.682Z,27.66
2023-06-06T14:54:56.807Z,27.50
2023-06-06T14:59:57.808Z,27.40
2023-06-06T15:04:58.930Z,27.31
2023-06-06T15:09:59.951Z,27.25
2023-06-06T15:15:01.066Z,27.14
2023-06-06T15:20:02.515Z,27.02
2023-06-06T15:25:04.354Z,26.89
2023-06-06T15:30:06.172Z,26.76
2023-06-06T15:35:07.942Z,26.73
2023-06-06T15:40:10.267Z,26.61
2023-06-06T15:45:12.900Z,26.51
2023-06-06T15:50:14.412Z,26.43
2023-06-06T15:55:15.665Z,26.34
2023-06-06T16:00:17.544Z,26.24
2023-06-06T16:05:18.854Z,26.14
2023-06-06T16:10:20.170Z,26.05
2023-06-06T16:15:21.442Z,25.97
2023-06-06T16:20:22.595Z,25.87
2023-06-06T16:25:23.880Z,25.77
2023-06-06T16:30:24.887Z,25.64
2023-06-06T16:35:26.081Z,25.52
2023-06-06T16:40:29.981Z,25.41
2023-06-06T16:45:31.723Z,25.34
2023-06-06T16:50:37.644Z,25.24
2023-06-06T16:55:38.753Z,25.12
2023-06-06T17:00:41.453Z,25.04
2023-06-06T17:05:46.052Z,24.94
2023-06-06T17:10:47.037Z,24.83
2023-06-06T17:15:48.510Z,24.75
2023-06-06T17:20:49.748Z,24.63
2023-06-06T17:25:51.579Z,24.51
2023-06-06T17:30:53.140Z,24.41
2023-06-06T17:35:54.463Z,24.27
2023-06-06T17:40:55.641Z,24.11
2023-06-06T17:45:56.893Z,23.97
2023-06-06T17:50:58.069Z,23.81
2023-06-06T17:55:59.822Z,23.70
2023-06-06T18:01:01.068Z,23.59
2023-06-06T18:06:02.408Z,23.49
2023-06-06T18:11:03.611Z,23.31
2023-06-06T18:16:05.380Z,23.23
2023-06-06T18:21:06.454Z,23.10
2023-06-06T18:26:07.431Z,22.98
2023-06-06T18:31:18.193Z,22.81
2023-06-06T18:36:29.714Z,22.66
2023-06-06T18:41:30.973Z,22.56
2023-06-06T18:46:32.694Z,22.49
2023-06-06T18:51:33.880Z,22.39
2023-06-06T18:56:35.056Z,22.26
2023-06-06T19:01:36.416Z,22.15
2023-06-06T19:06:37.809Z,22.05
2023-06-06T19:11:39.260Z,21.94
2023-06-06T19:16:40.546Z,21.87
2023-06-06T19:21:41.888Z,21.76
2023-06-06T19:26:42.946Z,21.66
2023-06-06T19:31:45.847Z,21.58
2023-06-06T19:36:47.224Z,21.50
2023-06-06T19:41:48.286Z,21.36
2023-06-06T19:46:49.344Z,21.26
2023-06-06T19:51:53.344Z,21.16
2023-06-06T19:56:54.675Z,21.11
2023-06-06T20:01:55.801Z,21.11
2023-06-06T20:06:57.032Z,21.07
2023-06-06T20:11:58.313Z,20.99
2023-06-06T20:16:59.481Z,20.86
2023-06-06T20:22:00.641Z,20.73
2023-06-06T20:27:03.996Z,20.62
2023-06-06T20:32:05.729Z,20.54
2023-06-06T20:37:07.814Z,20.51
2023-06-06T20:42:09.212Z,20.44
2023-06-06T20:47:10.690Z,20.44
2023-06-06T20:52:12.009Z,20.37
2023-06-06T20:57:13.370Z,20.23
2023-06-06T21:02:14.498Z,20.15
2023-06-06T21:07:15.799Z,20.11
2023-06-06T21:12:16.857Z,19.98
2023-06-06T21:17:18.333Z,19.89
2023-06-06T21:22:19.618Z,19.83
2023-06-06T21:27:20.858Z,19.80
2023-06-06T21:32:22.253Z,19.80
2023-06-06T21:37:24.183Z,19.72
2023-06-06T21:42:28.134Z,19.66
2023-06-06T21:47:29.534Z,19.60
2023-06-06T21:52:32.291Z,19.57
2023-06-06T21:57:33.769Z,19.52
2023-06-06T22:02:34.898Z,19.45
2023-06-06T22:07:36.090Z,19.38
2023-06-06T22:12:39.820Z,19.38
2023-06-06T22:17:41.002Z,19.35
2023-06-06T22:22:42.036Z,19.24
2023-06-06T22:27:43.231Z,19.11
2023-06-06T22:32:44.279Z,19.01
2023-06-06T22:37:45.477Z,18.98
2023-06-06T22:42:46.546Z,18.96
2023-06-06T22:47:47.547Z,18.88
2023-06-06T22:52:48.619Z,18.78
2023-06-06T22:57:49.577Z,18.66
2023-06-06T23:02:50.619Z,18.52
2023-06-06T23:07:52.092Z,18.38
2023-06-06T23:12:53.184Z,18.29
2023-06-06T23:17:54.339Z,18.23
2023-06-06T23:22:55.405Z,18.14
2023-06-06T23:27:56.366Z,17.95
2023-06-06T23:32:57.357Z,17.81
2023-06-06T23:37:58.464Z,17.71
2023-06-06T23:42:59.481Z,17.66
2023-06-06T23:48:00.735Z,17.63
2023-06-06T23:53:02.064Z,17.64
2023-06-06T23:58:03.179Z,17.55
